createdAt,value
2016-03-21T00:00:31.739Z,22.46
2016-03-21T00:01:31.756Z,22.47
2016-03-21T00:02:31.588Z,22.42
2016-03-21T00:03:31.778Z,22.51
2016-03-21T00:04:31.781Z,22.47
2016-03-21T00:05:31.767Z,22.51
2016-03-21T00:06:31.785Z,22.47
2016-03-21T00:07:31.789Z,22.51
2016-03-21T00:08:31.791Z,22.46
2016-03-21T00:09:31.794Z,22.49
2016-03-21T00:10:31.656Z,22.51
2016-03-21T00:11:31.799Z,22.45
2016-03-21T00:12:31.802Z,22.37
2016-03-21T00:13:31.821Z,22.52
2016-03-21T00:14:31.823Z,22.47
2016-03-21T00:15:31.841Z,22.49
2016-03-21T00:16:31.844Z,22.47
2016-03-21T00:17:31.846Z,22.55
2016-03-21T00:18:31.849Z,22.54
2016-03-21T00:19:31.868Z,22.49
2016-03-21T00:20:31.871Z,22.49
2016-03-21T00:21:31.718Z,22.47
2016-03-21T00:22:31.892Z,22.45
2016-03-21T00:23:31.895Z,22.47
2016-03-21T00:24:31.897Z,22.49
2016-03-21T00:25:31.900Z,22.51
2016-03-21T00:26:31.917Z,22.58
2016-03-21T00:27:31.906Z,22.49
2016-03-21T00:28:31.908Z,22.51
2016-03-21T00:29:31.911Z,22.45
2016-03-21T00:30:31.913Z,22.47
2016-03-21T00:31:31.947Z,22.46
2016-03-21T00:32:31.934Z,22.49
2016-03-21T00:33:31.937Z,22.51
2016-03-21T00:34:31.939Z,22.4
2016-03-21T00:35:31.958Z,22.51
2016-03-21T00:36:31.960Z,22.47
2016-03-21T00:37:31.963Z,22.46
2016-03-21T00:38:32.013Z,22.47
2016-03-21T00:39:31.969Z,22.47
2016-03-21T00:40:31.987Z,22.47
2016-03-21T00:41:31.989Z,22.47
2016-03-21T00:42:31.992Z,22.51
2016-03-21T00:43:31.994Z,22.62
2016-03-21T00:44:32.013Z,22.46
2016-03-21T00:45:32.016Z,22.51
2016-03-21T00:46:32.034Z,22.46
2016-03-21T00:47:32.037Z,22.58
2016-03-21T00:48:32.040Z,22.51
2016-03-21T00:49:31.886Z,22.54
2016-03-21T00:50:32.045Z,22.62
2016-03-21T00:51:32.063Z,22.49
2016-03-21T00:52:32.050Z,22.51
2016-03-21T00:53:32.068Z,22.45
2016-03-21T00:54:32.071Z,22.45
2016-03-21T00:55:32.074Z,22.45
2016-03-21T00:56:32.109Z,22.47
2016-03-21T00:57:32.079Z,22.46
2016-03-21T00:58:32.129Z,22.51
2016-03-21T00:59:32.101Z,22.42
2016-03-21T01:00:32.197Z,22.45
2016-03-21T01:01:32.106Z,22.4
2016-03-21T01:02:32.124Z,22.4
2016-03-21T01:03:32.127Z,22.4
2016-03-21T01:04:32.130Z,22.45
2016-03-21T01:05:32.148Z,22.43
2016-03-21T01:06:32.150Z,22.46
2016-03-21T01:07:32.138Z,22.36
2016-03-21T01:08:32.156Z,22.4
2016-03-21T01:09:32.158Z,22.4
2016-03-21T01:10:32.161Z,22.4
2016-03-21T01:11:32.164Z,22.47
2016-03-21T01:12:32.182Z,22.36
2016-03-21T01:13:32.200Z,22.45
2016-03-21T01:14:32.172Z,22.42
2016-03-21T01:15:41.221Z,22.46
2016-03-21T01:16:32.193Z,22.42
2016-03-21T01:17:32.211Z,22.43
2016-03-21T01:18:32.199Z,22.4
2016-03-21T01:19:32.216Z,22.43
2016-03-21T01:20:32.219Z,22.42
2016-03-21T01:21:32.238Z,22.43
2016-03-21T01:22:32.257Z,22.4
2016-03-21T01:23:32.227Z,22.42
2016-03-21T01:24:32.261Z,22.37
2016-03-21T01:25:32.249Z,22.43
2016-03-21T01:26:32.267Z,22.42
2016-03-21T01:27:32.270Z,22.4
2016-03-21T01:28:32.273Z,22.31
2016-03-21T01:29:32.275Z,22.36
2016-03-21T01:30:32.278Z,22.39
2016-03-21T01:31:32.296Z,22.42
2016-03-21T01:32:32.299Z,22.4
2016-03-21T01:33:32.301Z,22.39
2016-03-21T01:34:32.304Z,22.37
2016-03-21T01:35:32.307Z,22.4
2016-03-21T01:36:32.309Z,22.42
2016-03-21T01:37:32.328Z,22.27
2016-03-21T01:38:32.331Z,22.4
2016-03-21T01:39:32.333Z,22.27
2016-03-21T01:40:32.352Z,22.24
2016-03-21T01:41:32.339Z,22.42
2016-03-21T01:42:32.357Z,22.42
2016-03-21T01:43:32.360Z,22.39
2016-03-21T01:44:32.363Z,22.37
2016-03-21T01:45:32.365Z,22.31
2016-03-21T01:46:32.383Z,22.39
2016-03-21T01:47:32.386Z,22.31
2016-03-21T01:48:32.388Z,22.43
2016-03-21T01:49:32.391Z,22.36
2016-03-21T01:50:32.410Z,22.43
2016-03-21T01:51:32.413Z,22.35
2016-03-21T01:52:32.416Z,22.39
2016-03-21T01:53:32.434Z,22.42
2016-03-21T01:54:32.421Z,22.28
2016-03-21T01:55:32.424Z,22.4
2016-03-21T01:56:32.442Z,22.42
2016-03-21T01:57:32.444Z,22.3
2016-03-21T01:58:32.447Z,22.31
2016-03-21T01:59:32.450Z,22.33
2016-03-21T02:00:32.452Z,22.33
2016-03-21T02:01:32.470Z,22.31
2016-03-21T02:02:32.474Z,22.4
2016-03-21T02:03:32.476Z,22.31
2016-03-21T02:04:32.479Z,22.35
2016-03-21T02:05:32.497Z,22.4
2016-03-21T02:06:32.500Z,22.22
2016-03-21T02:07:32.503Z,22.33
2016-03-21T02:08:32.505Z,22.27
2016-03-21T02:09:32.509Z,22.24
2016-03-21T02:10:32.526Z,22.28
2016-03-21T02:11:32.528Z,22.27
2016-03-21T02:12:32.531Z,22.3
2016-03-21T02:13:32.550Z,22.24
2016-03-21T02:14:32.537Z,22.24
2016-03-21T02:15:32.556Z,22.35
2016-03-21T02:16:32.559Z,22.28
2016-03-21T02:17:32.577Z,22.37
2016-03-21T02:18:32.579Z,22.27
2016-03-21T02:19:32.583Z,22.37
2016-03-21T02:20:32.585Z,22.31
2016-03-21T02:21:32.588Z,22.28
2016-03-21T02:22:32.590Z,22.25
2016-03-21T02:23:32.608Z,22.24
2016-03-21T02:24:32.611Z,22.36
2016-03-21T02:25:32.613Z,22.3
2016-03-21T02:26:32.601Z,22.3
2016-03-21T02:27:32.619Z,22.28
2016-03-21T02:28:32.621Z,22.28
2016-03-21T02:29:32.624Z,22.25
2016-03-21T02:30:32.626Z,22.25
2016-03-21T02:31:32.646Z,22.22
2016-03-21T02:32:32.648Z,22.35
2016-03-21T02:33:32.665Z,22.31
2016-03-21T02:34:32.668Z,22.33
2016-03-21T02:35:32.671Z,22.25
2016-03-21T02:36:32.674Z,22.28
2016-03-21T02:37:32.677Z,22.25
2016-03-21T02:38:32.680Z,22.25
2016-03-21T02:39:32.698Z,22.22
2016-03-21T02:40:32.684Z,22.25
2016-03-21T02:41:32.704Z,22.24
2016-03-21T02:42:32.706Z,22.25
2016-03-21T02:43:32.709Z,22.28
2016-03-21T02:44:32.711Z,22.27
2016-03-21T02:45:32.730Z,22.25
2016-03-21T02:46:32.733Z,22.22
2016-03-21T02:47:32.735Z,22.25
2016-03-21T02:48:32.739Z,22.35
2016-03-21T02:49:32.741Z,22.25
2016-03-21T02:50:32.744Z,22.27
2016-03-21T02:51:32.746Z,22.24
2016-03-21T02:52:32.764Z,22.25
2016-03-21T02:53:32.767Z,22.17
2016-03-21T02:54:32.769Z,22.3
2016-03-21T02:55:32.788Z,22.27
2016-03-21T02:56:32.774Z,22.33
2016-03-21T02:57:32.794Z,22.25
2016-03-21T02:58:32.796Z,22.33
2016-03-21T02:59:32.799Z,22.25
2016-03-21T03:00:33.271Z,22.24
2016-03-21T03:01:32.820Z,22.25
2016-03-21T03:02:32.823Z,22.22
2016-03-21T03:03:32.826Z,22.22
2016-03-21T03:04:32.844Z,22.21
2016-03-21T03:05:32.846Z,22.2
2016-03-21T03:06:32.848Z,22.25
2016-03-21T03:07:32.851Z,22.31
2016-03-21T03:08:32.853Z,22.25
2016-03-21T03:09:32.840Z,22.28
2016-03-21T03:10:32.859Z,22.3
2016-03-21T03:11:32.861Z,22.27
2016-03-21T03:12:32.880Z,22.24
2016-03-21T03:13:32.882Z,22.27
2016-03-21T03:14:32.885Z,22.22
2016-03-21T03:15:32.888Z,22.33
2016-03-21T03:16:32.906Z,22.27
2016-03-21T03:17:32.893Z,22.25
2016-03-21T03:18:32.895Z,22.25
2016-03-21T03:19:32.914Z,22.31
2016-03-21T03:20:32.932Z,22.28
2016-03-21T03:21:32.919Z,22.28
2016-03-21T03:22:32.922Z,22.25
2016-03-21T03:23:32.940Z,22.27
2016-03-21T03:24:32.927Z,22.3
2016-03-21T03:25:32.945Z,22.24
2016-03-21T03:26:32.949Z,22.3
2016-03-21T03:27:32.967Z,22.31
2016-03-21T03:28:32.969Z,22.3
2016-03-21T03:29:32.956Z,22.24
2016-03-21T03:30:32.975Z,22.25
2016-03-21T03:31:32.978Z,22.3
2016-03-21T03:32:32.981Z,22.35
2016-03-21T03:33:32.984Z,22.35
2016-03-21T03:34:33.001Z,22.33
2016-03-21T03:35:33.020Z,22.25
2016-03-21T03:36:33.022Z,22.22
2016-03-21T03:37:33.009Z,22.33
2016-03-21T03:38:33.028Z,22.2
2016-03-21T03:39:33.030Z,22.24
2016-03-21T03:40:33.033Z,22.33
2016-03-21T03:41:33.035Z,22.28
2016-03-21T03:42:33.039Z,22.25
2016-03-21T03:43:32.900Z,22.24
2016-03-21T03:44:33.044Z,22.25
2016-03-21T03:45:33.109Z,22.22
2016-03-21T03:46:33.065Z,22.27
2016-03-21T03:47:33.068Z,22.25
2016-03-21T03:48:33.086Z,22.28
2016-03-21T03:49:33.089Z,22.24
2016-03-21T03:50:33.091Z,22.3
2016-03-21T03:51:33.109Z,22.21
2016-03-21T03:52:33.096Z,22.22
2016-03-21T03:53:33.115Z,22.22
2016-03-21T03:54:33.117Z,22.2
2016-03-21T03:55:33.121Z,22.22
2016-03-21T03:56:33.138Z,22.2
2016-03-21T03:57:33.141Z,22.24
2016-03-21T03:58:33.143Z,22.2
2016-03-21T03:59:33.131Z,22.21
2016-03-21T04:00:33.149Z,22.17
2016-03-21T04:01:33.167Z,22.2
2016-03-21T04:02:33.154Z,22.28
2016-03-21T04:03:33.173Z,22.22
2016-03-21T04:04:33.160Z,22.22
2016-03-21T04:05:33.178Z,22.22
2016-03-21T04:06:33.025Z,22.2
2016-03-21T04:07:33.184Z,22.22
2016-03-21T04:08:33.202Z,22.31
2016-03-21T04:09:33.205Z,22.22
2016-03-21T04:10:33.207Z,22.18
2016-03-21T04:11:33.211Z,22.15
2016-03-21T04:12:33.213Z,22.2
2016-03-21T04:13:33.231Z,22.25
2016-03-21T04:14:33.249Z,22.21
2016-03-21T04:15:33.236Z,22.18
2016-03-21T04:16:33.239Z,22.22
2016-03-21T04:17:33.257Z,22.21
2016-03-21T04:18:33.261Z,22.22
2016-03-21T04:19:33.263Z,22.21
2016-03-21T04:20:33.265Z,22.18
2016-03-21T04:21:33.284Z,22.18
2016-03-21T04:22:33.271Z,22.2
2016-03-21T04:23:33.274Z,22.15
2016-03-21T04:24:33.292Z,22.18
2016-03-21T04:25:33.295Z,22.21
2016-03-21T04:26:33.313Z,22.17
2016-03-21T04:27:33.315Z,22.25
2016-03-21T04:28:33.318Z,22.17
2016-03-21T04:29:33.306Z,22.18
2016-03-21T04:30:33.308Z,22.2
2016-03-21T04:31:33.373Z,22.2
2016-03-21T04:32:33.328Z,22.18
2016-03-21T04:33:33.348Z,22.21
2016-03-21T04:34:33.350Z,22.18
2016-03-21T04:35:33.259Z,22.21
2016-03-21T04:36:33.370Z,22.24
2016-03-21T04:37:33.358Z,22.22
2016-03-21T04:38:33.376Z,22.2
2016-03-21T04:39:33.363Z,22.1
2016-03-21T04:40:33.398Z,22.21
2016-03-21T04:41:33.384Z,22.24
2016-03-21T04:42:33.403Z,22.2
2016-03-21T04:43:33.405Z,22.17
2016-03-21T04:44:33.408Z,22.14
2016-03-21T04:45:53.645Z,22.14
2016-03-21T04:46:33.413Z,22.14
2016-03-21T04:47:33.432Z,22.17
2016-03-21T04:48:33.419Z,22.15
2016-03-21T04:49:33.453Z,22.2
2016-03-21T04:50:33.440Z,22.17
2016-03-21T04:51:33.458Z,22.18
2016-03-21T04:52:33.446Z,22.1
2016-03-21T04:53:33.463Z,22.14
2016-03-21T04:54:33.451Z,22.18
2016-03-21T04:55:33.468Z,22.09
2016-03-21T04:56:33.471Z,22.15
2016-03-21T04:57:33.474Z,22.07
2016-03-21T04:58:33.492Z,22.18
2016-03-21T04:59:33.479Z,22.14
2016-03-21T05:00:33.748Z,22.15
2016-03-21T05:01:33.501Z,22.18
2016-03-21T05:02:32.769Z,22.12
2016-03-21T05:03:33.538Z,22.17
2016-03-21T05:04:33.509Z,22.12
2016-03-21T05:05:33.527Z,22.1
2016-03-21T05:06:33.546Z,22.17
2016-03-21T05:07:33.533Z,22.14
2016-03-21T05:08:33.536Z,22.12
2016-03-21T05:09:33.584Z,22.1
2016-03-21T05:10:33.556Z,22.17
2016-03-21T05:11:33.575Z,22.12
2016-03-21T05:12:33.562Z,22.15
2016-03-21T05:13:33.580Z,22.12
2016-03-21T05:14:33.567Z,22.17
2016-03-21T05:15:33.585Z,22.14
2016-03-21T05:16:33.588Z,22.12
2016-03-21T05:17:33.590Z,22.06
2016-03-21T05:18:33.609Z,22.07
2016-03-21T05:19:33.611Z,22.05
2016-03-21T05:20:33.629Z,22.1
2016-03-21T05:21:33.616Z,22.14
2016-03-21T05:22:33.619Z,22.12
2016-03-21T05:23:33.622Z,22.12
2016-03-21T05:24:33.656Z,22.12
2016-03-21T05:25:33.644Z,22.12
2016-03-21T05:26:33.646Z,22.14
2016-03-21T05:27:33.648Z,22.1
2016-03-21T05:28:33.667Z,22.14
2016-03-21T05:29:33.498Z,22.15
2016-03-21T05:30:33.673Z,22.12
2016-03-21T05:31:33.659Z,22.14
2016-03-21T05:32:33.693Z,22.12
2016-03-21T05:33:33.681Z,22.14
2016-03-21T05:34:33.699Z,22.05
2016-03-21T05:35:33.686Z,22.07
2016-03-21T05:36:33.720Z,22.06
2016-03-21T05:37:33.707Z,22.1
2016-03-21T05:38:33.725Z,22.09
2016-03-21T05:39:33.712Z,22.14
2016-03-21T05:40:33.715Z,22.1
2016-03-21T05:41:33.733Z,22.07
2016-03-21T05:42:33.736Z,22.09
2016-03-21T05:43:33.754Z,22.12
2016-03-21T05:44:33.742Z,22.14
2016-03-21T05:45:33.760Z,22.17
2016-03-21T05:46:33.747Z,22.1
2016-03-21T05:47:33.780Z,22.17
2016-03-21T05:48:33.769Z,22.1
2016-03-21T05:49:33.786Z,22.09
2016-03-21T05:50:33.788Z,22.12
2016-03-21T05:51:33.792Z,22.14
2016-03-21T05:52:33.794Z,22.09
2016-03-21T05:53:33.797Z,22.09
2016-03-21T05:54:33.799Z,22.07
2016-03-21T05:55:33.818Z,22.06
2016-03-21T05:56:33.805Z,22.07
2016-03-21T05:57:33.823Z,22.12
2016-03-21T05:58:33.826Z,22.07
2016-03-21T05:59:33.829Z,22.09
2016-03-21T06:00:33.846Z,22.15
2016-03-21T06:01:33.834Z,22.14
2016-03-21T06:02:33.851Z,22.1
2016-03-21T06:03:33.871Z,22.17
2016-03-21T06:04:33.873Z,22.14
2016-03-21T06:05:33.892Z,22.1
2016-03-21T06:06:33.706Z,22.12
2016-03-21T06:07:33.865Z,22.12
2016-03-21T06:08:33.900Z,22.07
2016-03-21T06:09:33.902Z,22.12
2016-03-21T06:10:33.921Z,22.12
2016-03-21T06:11:33.908Z,22.03
2016-03-21T06:12:33.926Z,22.07
2016-03-21T06:13:33.913Z,22.14
2016-03-21T06:14:33.916Z,22.17
2016-03-21T06:15:33.934Z,22.14
2016-03-21T06:16:33.936Z,22.18
2016-03-21T06:17:33.767Z,22.18
2016-03-21T06:18:33.942Z,22.2
2016-03-21T06:19:33.788Z,22.17
2016-03-21T06:20:34.057Z,22.21
2016-03-21T06:21:33.950Z,22.1
2016-03-21T06:22:33.969Z,22.2
2016-03-21T06:23:33.955Z,22.2
2016-03-21T06:24:33.974Z,22.22
2016-03-21T06:25:33.993Z,22.17
2016-03-21T06:26:33.996Z,22.2
2016-03-21T06:27:33.998Z,22.1
2016-03-21T06:28:34.015Z,22.18
2016-03-21T06:29:34.050Z,22.15
2016-03-21T06:30:34.006Z,22.18
2016-03-21T06:31:34.009Z,22.18
2016-03-21T06:32:34.027Z,22.21
2016-03-21T06:33:34.029Z,22.22
2016-03-21T06:34:34.017Z,22.18
2016-03-21T06:35:34.128Z,22.1
2016-03-21T06:36:34.037Z,22.15
2016-03-21T06:37:34.056Z,22.17
2016-03-21T06:38:34.059Z,22.17
2016-03-21T06:39:34.076Z,22.18
2016-03-21T06:40:34.064Z,22.18
2016-03-21T06:41:34.082Z,22.18
2016-03-21T06:42:34.084Z,22.1
2016-03-21T06:43:34.087Z,22.18
2016-03-21T06:44:34.106Z,22.2
2016-03-21T06:45:34.092Z,22.2
2016-03-21T06:46:34.095Z,22.27
2016-03-21T06:47:34.098Z,22.21
2016-03-21T06:48:34.101Z,22.22
2016-03-21T06:49:34.103Z,22.2
2016-03-21T06:50:34.028Z,22.21
2016-03-21T06:51:34.125Z,22.18
2016-03-21T06:52:34.128Z,22.18
2016-03-21T06:53:34.130Z,22.21
2016-03-21T06:54:34.133Z,22.22
2016-03-21T06:55:34.152Z,22.21
2016-03-21T06:56:34.154Z,22.22
2016-03-21T06:57:34.156Z,22.17
2016-03-21T06:58:34.175Z,22.22
2016-03-21T06:59:34.177Z,22.21
2016-03-21T07:00:34.196Z,22.18
2016-03-21T07:01:34.198Z,22.22
2016-03-21T07:02:34.201Z,22.21
2016-03-21T07:03:34.204Z,22.28
2016-03-21T07:04:34.222Z,22.22
2016-03-21T07:05:34.210Z,22.21
2016-03-21T07:06:34.204Z,22.22
2016-03-21T07:07:34.222Z,22.21
2016-03-21T07:08:34.225Z,22.15
2016-03-21T07:09:34.228Z,22.22
2016-03-21T07:10:34.231Z,22.24
2016-03-21T07:11:34.248Z,22.24
2016-03-21T07:12:34.251Z,22.24
2016-03-21T07:13:34.254Z,22.22
2016-03-21T07:14:34.256Z,22.22
2016-03-21T07:15:34.259Z,22.22
2016-03-21T07:16:34.277Z,22.2
2016-03-21T07:17:34.281Z,22.21
2016-03-21T07:18:34.283Z,22.3
2016-03-21T07:19:34.286Z,22.28
2016-03-21T07:20:34.305Z,22.22
2016-03-21T07:21:34.291Z,22.24
2016-03-21T07:22:34.294Z,22.22
2016-03-21T07:23:34.312Z,22.22
2016-03-21T07:24:34.300Z,22.18
2016-03-21T07:25:34.333Z,22.21
2016-03-21T07:26:34.351Z,22.18
2016-03-21T07:27:34.354Z,22.28
2016-03-21T07:28:34.357Z,22.37
2016-03-21T07:29:34.360Z,22.46
2016-03-21T07:30:34.362Z,22.55
2016-03-21T07:31:34.381Z,22.72
2016-03-21T07:32:34.368Z,22.8
2016-03-21T07:33:34.370Z,22.82
2016-03-21T07:34:34.373Z,22.8
2016-03-21T07:35:34.391Z,23.02
2016-03-21T07:36:34.393Z,23.07
2016-03-21T07:37:34.396Z,23.16
2016-03-21T07:38:34.415Z,23.25
2016-03-21T07:39:34.418Z,23.32
2016-03-21T07:40:34.404Z,23.42
2016-03-21T07:41:34.439Z,23.46
2016-03-21T07:42:34.442Z,23.51
2016-03-21T07:43:34.428Z,23.51
2016-03-21T07:44:34.431Z,23.57
2016-03-21T07:45:34.442Z,23.63
2016-03-21T07:46:34.431Z,23.66
2016-03-21T07:47:34.419Z,23.72
2016-03-21T07:48:34.409Z,23.65
2016-03-21T07:49:34.412Z,23.68
2016-03-21T07:50:34.407Z,23.79
2016-03-21T07:51:34.404Z,23.84
2016-03-21T07:52:34.401Z,23.88
2016-03-21T07:53:34.400Z,23.83
2016-03-21T07:54:34.397Z,23.93
2016-03-21T07:55:34.412Z,23.9
2016-03-21T07:56:34.413Z,23.84
2016-03-21T07:57:34.414Z,23.84
2016-03-21T07:58:34.414Z,23.84
2016-03-21T07:59:34.431Z,23.84
2016-03-21T08:00:34.433Z,23.97
2016-03-21T08:01:34.435Z,23.94
2016-03-21T08:02:34.452Z,23.93
2016-03-21T08:03:34.454Z,23.87
2016-03-21T08:04:34.472Z,23.95
2016-03-21T08:05:34.474Z,23.88
2016-03-21T08:06:34.460Z,23.84
2016-03-21T08:07:34.480Z,23.93
2016-03-21T08:08:34.654Z,23.93
2016-03-21T08:09:34.485Z,23.9
2016-03-21T08:10:34.487Z,23.83
2016-03-21T08:11:34.505Z,23.93
2016-03-21T08:12:34.508Z,23.88
2016-03-21T08:13:34.510Z,23.91
2016-03-21T08:14:34.514Z,23.91
2016-03-21T08:15:34.548Z,23.95
2016-03-21T08:16:34.550Z,23.95
2016-03-21T08:17:34.553Z,23.91
2016-03-21T08:18:34.556Z,23.87
2016-03-21T08:19:34.574Z,23.85
2016-03-21T08:20:34.576Z,23.94
2016-03-21T08:21:34.579Z,23.8
2016-03-21T08:22:34.598Z,23.9
2016-03-21T08:23:34.584Z,23.87
2016-03-21T08:24:34.603Z,23.94
2016-03-21T08:25:34.606Z,23.98
2016-03-21T08:26:34.750Z,23.91
2016-03-21T08:27:34.611Z,23.91
2016-03-21T08:28:34.614Z,23.84
2016-03-21T08:29:34.616Z,23.88
2016-03-21T08:30:34.635Z,23.79
2016-03-21T08:31:34.652Z,23.91
2016-03-21T08:32:34.656Z,23.91
2016-03-21T08:33:34.658Z,23.94
2016-03-21T08:34:34.661Z,23.9
2016-03-21T08:35:34.680Z,23.87
2016-03-21T08:36:34.667Z,23.91
2016-03-21T08:37:34.669Z,23.93
2016-03-21T08:38:34.687Z,23.91
2016-03-21T08:39:34.691Z,23.87
2016-03-21T08:40:34.693Z,23.95
2016-03-21T08:41:34.696Z,23.95
2016-03-21T08:42:34.713Z,23.93
2016-03-21T08:43:34.716Z,23.88
2016-03-21T08:44:34.719Z,23.9
2016-03-21T08:45:34.737Z,23.87
2016-03-21T08:46:34.741Z,23.85
2016-03-21T08:47:34.743Z,23.85
2016-03-21T08:48:34.746Z,23.94
2016-03-21T08:49:34.764Z,23.94
2016-03-21T08:50:34.767Z,23.91
2016-03-21T08:51:34.770Z,23.95
2016-03-21T08:52:34.772Z,23.94
2016-03-21T08:53:34.790Z,23.95
2016-03-21T08:54:34.793Z,23.91
2016-03-21T08:55:34.795Z,23.94
2016-03-21T08:56:34.799Z,23.88
2016-03-21T08:57:34.833Z,23.93
2016-03-21T08:58:34.820Z,23.87
2016-03-21T08:59:34.838Z,23.88
2016-03-21T09:00:34.825Z,23.98
2016-03-21T09:01:34.844Z,23.97
2016-03-21T09:02:34.846Z,24
2016-03-21T09:03:34.849Z,23.95
2016-03-21T09:04:34.866Z,23.91
2016-03-21T09:05:34.869Z,23.93
2016-03-21T09:06:34.872Z,23.93
2016-03-21T09:07:34.891Z,24
2016-03-21T09:08:34.894Z,23.94
2016-03-21T09:09:34.896Z,24.03
2016-03-21T09:10:34.899Z,24
2016-03-21T09:11:34.902Z,24.03
2016-03-21T09:12:34.919Z,24.13
2016-03-21T09:13:34.921Z,24.1
2016-03-21T09:14:34.917Z,24.08
2016-03-21T09:15:34.981Z,24.08
2016-03-21T09:16:34.937Z,24.06
2016-03-21T09:17:34.955Z,24.09
2016-03-21T09:18:34.959Z,24.1
2016-03-21T09:19:34.961Z,24.08
2016-03-21T09:20:35.010Z,24.08
2016-03-21T09:21:34.982Z,24.02
2016-03-21T09:22:34.985Z,24.03
2016-03-21T09:23:35.002Z,24.05
2016-03-21T09:24:35.006Z,24.05
2016-03-21T09:25:35.008Z,24.05
2016-03-21T09:26:35.011Z,24.03
2016-03-21T09:27:35.029Z,23.93
2016-03-21T09:28:35.032Z,24
2016-03-21T09:29:35.035Z,23.91
2016-03-21T09:30:35.037Z,23.93
2016-03-21T09:31:35.055Z,23.91
2016-03-21T09:32:35.058Z,23.91
2016-03-21T09:33:35.060Z,24.08
2016-03-21T09:34:35.064Z,23.94
2016-03-21T09:35:35.066Z,23.97
2016-03-21T09:36:35.085Z,24.03
2016-03-21T09:37:35.087Z,23.97
2016-03-21T09:38:35.106Z,24
2016-03-21T09:39:35.109Z,24.06
2016-03-21T09:40:35.126Z,23.98
2016-03-21T09:41:35.129Z,24.03
2016-03-21T09:42:35.131Z,24.02
2016-03-21T09:43:35.134Z,24.03
2016-03-21T09:44:35.153Z,24
2016-03-21T09:45:35.156Z,23.93
2016-03-21T09:46:35.159Z,23.98
2016-03-21T09:47:35.161Z,24.06
2016-03-21T09:48:35.180Z,24
2016-03-21T09:49:35.167Z,23.93
2016-03-21T09:50:35.185Z,23.95
2016-03-21T09:51:35.203Z,24
2016-03-21T09:52:35.191Z,23.95
2016-03-21T09:53:35.225Z,24.02
2016-03-21T09:54:35.211Z,23.94
2016-03-21T09:55:35.230Z,23.97
2016-03-21T09:56:35.232Z,24.02
2016-03-21T09:57:35.235Z,24.03
2016-03-21T09:58:35.237Z,24.02
2016-03-21T09:59:35.256Z,24.05
2016-03-21T10:00:35.258Z,24.05
2016-03-21T10:01:35.260Z,24.08
2016-03-21T10:02:35.263Z,24.06
2016-03-21T10:03:35.282Z,24.13
2016-03-21T10:04:35.269Z,24.1
2016-03-21T10:05:35.318Z,24.21
2016-03-21T10:06:35.291Z,24.09
2016-03-21T10:07:35.310Z,24.15
2016-03-21T10:08:35.312Z,24.2
2016-03-21T10:09:35.316Z,24.12
2016-03-21T10:10:35.318Z,24.05
2016-03-21T10:11:35.336Z,24.12
2016-03-21T10:12:35.338Z,24.13
2016-03-21T10:13:35.341Z,24.08
2016-03-21T10:14:35.359Z,24.06
2016-03-21T10:15:44.362Z,24.03
2016-03-21T10:16:35.365Z,24
2016-03-21T10:17:35.368Z,23.91
2016-03-21T10:18:35.386Z,23.94
2016-03-21T10:19:35.389Z,23.95
2016-03-21T10:20:35.392Z,23.83
2016-03-21T10:21:35.395Z,23.87
2016-03-21T10:22:35.412Z,23.91
2016-03-21T10:23:35.415Z,23.98
2016-03-21T10:24:35.418Z,23.94
2016-03-21T10:25:35.437Z,23.93
2016-03-21T10:26:35.439Z,23.95
2016-03-21T10:27:35.442Z,24
2016-03-21T10:28:35.475Z,24
2016-03-21T10:29:35.462Z,24.02
2016-03-21T10:30:35.496Z,24.09
2016-03-21T10:31:35.467Z,23.94
2016-03-21T10:32:35.486Z,24.1
2016-03-21T10:33:35.472Z,24.05
2016-03-21T10:34:35.492Z,24.2
2016-03-21T10:35:35.525Z,24.06
2016-03-21T10:36:35.528Z,24.05
2016-03-21T10:37:35.516Z,24.05
2016-03-21T10:38:35.533Z,24.03
2016-03-21T10:39:35.521Z,24.06
2016-03-21T10:40:35.539Z,24.25
2016-03-21T10:41:35.542Z,24.4
2016-03-21T10:42:35.544Z,24.53
2016-03-21T10:43:35.546Z,24.52
2016-03-21T10:44:35.565Z,24.53
2016-03-21T10:45:35.568Z,24.57
2016-03-21T10:46:35.571Z,24.58
2016-03-21T10:47:35.590Z,24.64
2016-03-21T10:48:35.592Z,24.64
2016-03-21T10:49:35.595Z,24.65
2016-03-21T10:50:35.612Z,24.67
2016-03-21T10:51:35.616Z,24.58
2016-03-21T10:52:35.618Z,24.34
2016-03-21T10:53:35.620Z,24.12
2016-03-21T10:54:35.623Z,24.02
2016-03-21T10:55:35.642Z,23.84
2016-03-21T10:56:35.644Z,23.91
2016-03-21T10:57:35.695Z,23.75
2016-03-21T10:58:35.665Z,23.73
2016-03-21T10:59:35.668Z,23.69
2016-03-21T11:00:35.670Z,23.65
2016-03-21T11:01:35.689Z,23.72
2016-03-21T11:02:35.676Z,23.68
2016-03-21T11:03:35.694Z,23.66
2016-03-21T11:04:35.728Z,23.54
2016-03-21T11:05:35.716Z,23.51
2016-03-21T11:06:35.725Z,23.6
2016-03-21T11:07:35.728Z,23.51
2016-03-21T11:08:35.794Z,23.5
2016-03-21T11:09:35.734Z,23.5
2016-03-21T11:10:35.737Z,23.54
2016-03-21T11:11:35.772Z,23.61
2016-03-21T11:12:35.758Z,23.6
2016-03-21T11:13:35.761Z,23.83
2016-03-21T11:14:35.779Z,23.88
2016-03-21T11:15:35.782Z,24
2016-03-21T11:16:35.785Z,24.08
2016-03-21T11:17:35.802Z,24.06
2016-03-21T11:18:35.789Z,24.03
2016-03-21T11:19:35.824Z,24.03
2016-03-21T11:20:35.810Z,24
2016-03-21T11:21:35.813Z,24.1
2016-03-21T11:22:35.832Z,24.13
2016-03-21T11:23:35.693Z,24.16
2016-03-21T11:24:35.837Z,24.16
2016-03-21T11:25:35.856Z,24.24
2016-03-21T11:26:35.874Z,24.24
2016-03-21T11:27:35.861Z,24.18
2016-03-21T11:28:35.878Z,24.24
2016-03-21T11:29:35.898Z,24.15
2016-03-21T11:30:35.900Z,24.15
2016-03-21T11:31:36.025Z,24.18
2016-03-21T11:32:35.795Z,24.15
2016-03-21T11:33:35.907Z,24.06
2016-03-21T11:34:35.930Z,24.1
2016-03-21T11:35:36.026Z,23.97
2016-03-21T11:36:35.968Z,24.09
2016-03-21T11:37:35.923Z,24.02
2016-03-21T11:38:35.941Z,24.12
2016-03-21T11:39:35.928Z,24.03
2016-03-21T11:40:35.931Z,23.98
2016-03-21T11:41:35.964Z,23.97
2016-03-21T11:42:35.952Z,23.98
2016-03-21T11:43:35.970Z,24.09
2016-03-21T11:44:35.973Z,24.02
2016-03-21T11:45:35.975Z,23.98
2016-03-21T11:46:35.994Z,24.08
2016-03-21T11:47:36.012Z,24.02
2016-03-21T11:48:35.999Z,24.03
2016-03-21T11:49:36.017Z,24.05
2016-03-21T11:50:36.020Z,24
2016-03-21T11:51:36.038Z,24
2016-03-21T11:52:36.041Z,24.09
2016-03-21T11:53:36.044Z,24.03
2016-03-21T11:54:36.046Z,24.02
2016-03-21T11:55:36.049Z,23.98
2016-03-21T11:56:36.052Z,24.1
2016-03-21T11:57:36.086Z,24.18
2016-03-21T11:58:36.151Z,24.1
2016-03-21T11:59:36.138Z,24.22
2016-03-21T12:00:36.079Z,24.21
2016-03-21T12:01:36.112Z,24.2
2016-03-21T12:02:36.100Z,24.2
2016-03-21T12:03:36.149Z,24.16
2016-03-21T12:04:36.120Z,24.2
2016-03-21T12:05:36.123Z,24.22
2016-03-21T12:06:36.048Z,24.21
2016-03-21T12:07:36.194Z,24.22
2016-03-21T12:08:35.995Z,24.2
2016-03-21T12:09:36.153Z,24.21
2016-03-21T12:10:36.219Z,24.16
2016-03-21T12:11:36.174Z,24.25
2016-03-21T12:12:36.177Z,24.28
2016-03-21T12:13:36.196Z,24.28
2016-03-21T12:14:36.182Z,24.32
2016-03-21T12:15:50.310Z,24.37
2016-03-21T12:16:36.204Z,24.32
2016-03-21T12:17:36.207Z,24.49
2016-03-21T12:18:36.225Z,24.37
2016-03-21T12:19:36.227Z,24.4
2016-03-21T12:20:36.104Z,24.37
2016-03-21T12:21:36.264Z,24.46
2016-03-21T12:22:36.282Z,24.47
2016-03-21T12:23:36.253Z,24.52
2016-03-21T12:24:36.256Z,24.58
2016-03-21T12:25:36.274Z,24.52
2016-03-21T12:26:36.276Z,24.61
2016-03-21T12:27:36.296Z,24.49
2016-03-21T12:28:36.298Z,24.53
2016-03-21T12:29:36.301Z,24.64
2016-03-21T12:30:36.320Z,24.62
2016-03-21T12:31:36.306Z,24.67
2016-03-21T12:32:36.308Z,24.71
2016-03-21T12:33:36.327Z,24.55
2016-03-21T12:34:36.330Z,24.62
2016-03-21T12:35:36.348Z,24.55
2016-03-21T12:36:36.414Z,24.64
2016-03-21T12:37:36.354Z,24.65
2016-03-21T12:38:36.216Z,24.67
2016-03-21T12:39:36.375Z,24.67
2016-03-21T12:40:36.393Z,24.69
2016-03-21T12:41:36.380Z,24.64
2016-03-21T12:42:36.414Z,24.57
2016-03-21T12:43:36.401Z,24.5
2016-03-21T12:44:36.404Z,24.49
2016-03-21T12:45:36.422Z,24.5
2016-03-21T12:46:36.424Z,24.47
2016-03-21T12:47:36.427Z,24.52
2016-03-21T12:48:36.446Z,24.49
2016-03-21T12:49:36.448Z,24.45
2016-03-21T12:50:36.482Z,24.5
2016-03-21T12:51:36.484Z,24.49
2016-03-21T12:52:36.487Z,24.61
2016-03-21T12:53:36.506Z,24.53
2016-03-21T12:54:36.493Z,24.53
2016-03-21T12:55:36.496Z,24.52
2016-03-21T12:56:36.498Z,24.5
2016-03-21T12:57:36.517Z,24.53